createdAt,value
2019-04-18T00:00:10.751Z,995.06
2019-04-18T00:01:10.777Z,992.83
2019-04-18T00:02:12.780Z,990.92
2019-04-18T00:03:15.163Z,989.02
2019-04-18T00:04:10.788Z,987.33
2019-04-18T00:05:10.756Z,984.97
2019-04-18T00:06:10.768Z,983.01
2019-04-18T00:07:10.756Z,981.19
2019-04-18T00:08:10.758Z,979.39
2019-04-18T00:09:10.788Z,977.73
2019-04-18T00:10:11.054Z,975.62
2019-04-18T00:11:10.796Z,974.52
2019-04-18T00:12:10.785Z,971.95
2019-04-18T00:13:10.770Z,970.38
2019-04-18T00:14:10.793Z,968.32
2019-04-18T00:15:10.776Z,966.24
2019-04-18T00:16:10.781Z,965.05
2019-04-18T00:17:10.772Z,963.53
2019-04-18T00:18:10.819Z,961.76
2019-04-18T00:19:12.508Z,960.01
2019-04-18T00:20:10.773Z,958.48
2019-04-18T00:21:10.839Z,956.89
2019-04-18T00:22:10.805Z,956
2019-04-18T00:23:10.813Z,954.93
2019-04-18T00:24:10.799Z,953.37
2019-04-18T00:25:10.805Z,952.35
2019-04-18T00:26:12.604Z,950.06
2019-04-18T00:27:15.247Z,949.66
2019-04-18T00:28:10.785Z,947.63
2019-04-18T00:29:10.814Z,946.7
2019-04-18T00:30:11.157Z,945.1
2019-04-18T00:31:10.804Z,943.99
2019-04-18T00:32:13.242Z,943.17
2019-04-18T00:33:10.814Z,942.54
2019-04-18T00:34:15.651Z,941.91
2019-04-18T00:35:12.195Z,941.31
2019-04-18T00:36:15.055Z,940.28
2019-04-18T00:37:10.843Z,939.31
2019-04-18T00:38:10.830Z,938.92
2019-04-18T00:39:10.859Z,938.36
2019-04-18T00:40:12.782Z,937.71
2019-04-18T00:41:12.927Z,936.78
2019-04-18T00:42:10.823Z,936.38
2019-04-18T00:43:10.838Z,934.97
2019-04-18T00:44:10.861Z,933.6
2019-04-18T00:45:12.476Z,931.5
2019-04-18T00:46:15.568Z,930.25
2019-04-18T00:47:10.861Z,929.13
2019-04-18T00:48:10.868Z,928.57
2019-04-18T00:49:10.873Z,927.87
2019-04-18T00:50:10.857Z,927.35
2019-04-18T00:51:10.871Z,926.56
2019-04-18T00:52:16.565Z,925.64
2019-04-18T00:53:10.867Z,924.55
2019-04-18T00:54:10.826Z,923.79
2019-04-18T00:55:10.870Z,923.2
2019-04-18T00:56:10.859Z,922.2
2019-04-18T00:57:13.195Z,921.49
2019-04-18T00:58:10.830Z,920.76
2019-04-18T00:59:10.873Z,920.44
2019-04-18T01:00:13.638Z,919.43
2019-04-18T01:01:14.124Z,918.26
2019-04-18T01:02:11.027Z,917.59
2019-04-18T01:03:10.862Z,916.5
2019-04-18T01:04:25.565Z,914.98
2019-04-18T01:05:12.064Z,913.75
2019-04-18T01:06:12.348Z,912.8
2019-04-18T01:07:11.094Z,911.29
2019-04-18T01:08:10.882Z,910.58
2019-04-18T01:09:10.888Z,909.52
2019-04-18T01:10:10.887Z,908.17
2019-04-18T01:11:10.871Z,907.45
2019-04-18T01:12:10.901Z,906.9
2019-04-18T01:13:11.310Z,906.7
2019-04-18T01:14:15.252Z,907.07
2019-04-18T01:15:11.228Z,907.05
2019-04-18T01:19:39.026Z,910.85
2019-04-18T01:20:39.013Z,911.51
2019-04-18T01:21:39.242Z,912.66
2019-04-18T01:22:39.024Z,913.34
2019-04-18T01:23:39.011Z,914.36
2019-04-18T01:24:39.033Z,915.07
2019-04-18T01:25:39.037Z,916.46
2019-04-18T01:26:39.028Z,917.52
2019-04-18T01:27:39.037Z,918.64
2019-04-18T01:28:39.043Z,919.35
2019-04-18T01:29:39.355Z,920.53
2019-04-18T01:30:39.034Z,921.3
2019-04-18T01:31:39.041Z,921.91
2019-04-18T01:32:39.049Z,922.74
2019-04-18T01:33:39.015Z,923.47
2019-04-18T01:34:41.791Z,924.28
2019-04-18T01:35:39.031Z,925.12
2019-04-18T01:36:39.032Z,926.56
2019-04-18T01:37:39.041Z,926.94
2019-04-18T01:38:42.198Z,927.84
2019-04-18T01:39:39.055Z,928.03
2019-04-18T01:40:39.048Z,928.49
2019-04-18T01:41:39.057Z,928.44
2019-04-18T01:42:39.044Z,928.58
2019-04-18T01:43:39.093Z,928.79
2019-04-18T01:44:39.057Z,929.07
2019-04-18T01:45:39.044Z,930.08
2019-04-18T01:46:39.082Z,930.96
2019-04-18T01:47:39.062Z,931.67
2019-04-18T01:48:39.112Z,932.72
2019-04-18T01:49:39.915Z,934.01
2019-04-18T01:50:39.072Z,934.57
2019-04-18T01:51:39.063Z,935.65
2019-04-18T01:52:39.070Z,936.83
2019-04-18T01:53:39.093Z,937.85
2019-04-18T01:54:40.938Z,938.88
2019-04-18T01:55:39.089Z,939.93
2019-04-18T01:56:39.083Z,940.81
2019-04-18T01:57:39.066Z,941.95
2019-04-18T01:58:39.081Z,942.61
2019-04-18T01:59:41.136Z,943.69
2019-04-18T02:00:39.180Z,945.11
2019-04-18T02:01:39.100Z,946.4
2019-04-18T02:02:39.089Z,947.31
2019-04-18T02:03:39.093Z,948.49
2019-04-18T02:04:41.077Z,949.82
2019-04-18T02:05:39.067Z,951.09
2019-04-18T02:06:41.339Z,952.2
2019-04-18T02:07:39.102Z,953.21
2019-04-18T02:08:39.095Z,954.09
2019-04-18T02:09:39.103Z,955.3
2019-04-18T02:10:39.113Z,955.9
2019-04-18T02:11:39.090Z,956.37
2019-04-18T02:12:39.080Z,956.93
2019-04-18T02:13:39.081Z,956.88
2019-04-18T02:14:39.109Z,957.23
2019-04-18T02:15:39.111Z,957.38
2019-04-18T02:16:40.225Z,957.77
2019-04-18T02:17:39.107Z,958.2
2019-04-18T02:18:39.092Z,958.8
2019-04-18T02:19:39.122Z,959.24
2019-04-18T02:20:39.118Z,959.71
2019-04-18T02:21:39.594Z,960.51
2019-04-18T02:22:39.110Z,961.04
2019-04-18T02:23:39.236Z,961.05
2019-04-18T02:24:39.103Z,961.56
2019-04-18T02:25:42.408Z,961.71
2019-04-18T02:26:39.136Z,962.09
2019-04-18T02:27:39.132Z,961.84
2019-04-18T02:28:39.127Z,962.22
2019-04-18T02:29:42.108Z,961.58
2019-04-18T02:30:39.112Z,961.29
2019-04-18T02:31:39.118Z,960.87
2019-04-18T02:32:39.106Z,960.41
2019-04-18T02:33:42.045Z,959.85
2019-04-18T02:34:39.135Z,958.9
2019-04-18T02:35:39.140Z,957.94
2019-04-18T02:36:39.150Z,957.48
2019-04-18T02:37:41.978Z,956.57
2019-04-18T02:38:39.142Z,955.97
2019-04-18T02:39:39.125Z,955.34
2019-04-18T02:40:39.152Z,954.49
2019-04-18T02:41:39.966Z,953.63
2019-04-18T02:42:39.141Z,953.37
2019-04-18T02:43:39.172Z,952.96
2019-04-18T02:44:39.162Z,952.64
2019-04-18T02:45:39.144Z,952.6
2019-04-18T02:46:41.957Z,951.97
2019-04-18T02:47:39.138Z,951.61
2019-04-18T02:48:39.163Z,951.03
2019-04-18T02:49:39.394Z,950.57
2019-04-18T02:50:42.050Z,950.37
2019-04-18T02:51:39.163Z,949.66
2019-04-18T02:52:39.173Z,949.58
2019-04-18T02:53:39.137Z,949.26
2019-04-18T02:54:41.142Z,949.31
2019-04-18T02:55:39.150Z,948.96
2019-04-18T02:56:39.176Z,948.83
2019-04-18T02:57:39.165Z,948.53
2019-04-18T02:58:40.637Z,948.43
2019-04-18T02:59:39.502Z,948.18
2019-04-18T03:00:39.193Z,948.41
2019-04-18T03:01:39.189Z,948.17
2019-04-18T03:02:39.178Z,948.58
2019-04-18T03:03:41.088Z,948.32
2019-04-18T03:04:39.172Z,948.22
2019-04-18T03:05:40.238Z,947.88
2019-04-18T03:06:39.185Z,947.59
2019-04-18T03:07:39.168Z,947.29
2019-04-18T03:08:39.190Z,946.47
2019-04-18T03:09:39.181Z,945.52
2019-04-18T03:10:40.742Z,944.96
2019-04-18T03:11:39.204Z,943.74
2019-04-18T03:12:39.197Z,942.15
2019-04-18T03:13:39.200Z,941.32
2019-04-18T03:14:39.964Z,939.87
2019-04-18T03:15:39.175Z,938.27
2019-04-18T03:16:39.204Z,936.43
2019-04-18T03:17:39.206Z,935.1
2019-04-18T03:18:39.199Z,933.63
2019-04-18T03:19:41.836Z,932.04
2019-04-18T03:20:39.209Z,930.16
2019-04-18T03:21:39.217Z,928.13
2019-04-18T03:22:39.216Z,926.64
2019-04-18T03:23:39.889Z,925.08
2019-04-18T03:24:39.194Z,923.43
2019-04-18T03:25:39.236Z,921.78
2019-04-18T03:26:39.199Z,919.56
2019-04-18T03:27:39.213Z,917.36
2019-04-18T03:28:39.220Z,916.4
2019-04-18T03:29:39.204Z,914.41
2019-04-18T03:30:39.230Z,911.86
2019-04-18T03:31:39.219Z,909.96
2019-04-18T03:32:39.237Z,907.96
2019-04-18T03:33:44.181Z,905.73
2019-04-18T03:34:39.836Z,903.65
2019-04-18T03:35:48.172Z,901.57
2019-04-18T03:36:39.237Z,899.17
2019-04-18T03:37:39.217Z,896.83
2019-04-18T03:38:41.754Z,894.96
2019-04-18T03:39:39.249Z,892.82
2019-04-18T03:40:39.242Z,890.58
2019-04-18T03:41:39.231Z,888.73
2019-04-18T03:42:39.239Z,886.35
2019-04-18T03:43:39.459Z,883.65
2019-04-18T03:44:39.227Z,881.05
2019-04-18T03:45:39.257Z,878.98
2019-04-18T03:46:39.237Z,876.62
2019-04-18T03:47:39.252Z,874.59
2019-04-18T03:48:39.542Z,872.71
2019-04-18T03:49:40.082Z,870.73
2019-04-18T03:50:39.254Z,869.06
2019-04-18T03:51:39.236Z,867.68
2019-04-18T03:52:39.262Z,866.46
2019-04-18T03:53:39.252Z,865.66
2019-04-18T03:54:46.215Z,864.97
2019-04-18T03:55:39.242Z,864.96
2019-04-18T03:56:39.253Z,864.54
2019-04-18T03:57:39.238Z,864.15
2019-04-18T03:58:42.531Z,863.49
2019-04-18T03:59:39.270Z,863.62
2019-04-18T04:00:39.377Z,862.8
2019-04-18T04:01:39.250Z,861.89
2019-04-18T04:02:39.270Z,862.07
2019-04-18T04:03:39.278Z,859.93
2019-04-18T04:04:39.262Z,859.24
2019-04-18T04:05:39.267Z,858.28
2019-04-18T04:06:39.274Z,856.74
2019-04-18T04:07:39.261Z,856.12
2019-04-18T04:08:39.274Z,854.8
2019-04-18T04:09:39.277Z,853.18
2019-04-18T04:10:39.436Z,852.56
2019-04-18T04:11:39.265Z,851.44
2019-04-18T04:12:39.290Z,850.73
2019-04-18T04:13:39.257Z,849.76
2019-04-18T04:14:40.577Z,849.24
2019-04-18T04:15:39.267Z,848.63
2019-04-18T04:16:39.281Z,848.15
2019-04-18T04:17:39.262Z,846.47
2019-04-18T04:18:42.336Z,845.53
2019-04-18T04:19:39.283Z,844.85
2019-04-18T04:20:39.286Z,843.64
2019-04-18T04:21:39.305Z,842.43
2019-04-18T04:22:39.295Z,841.71
2019-04-18T04:23:39.290Z,840.71
2019-04-18T04:24:39.294Z,840.76
2019-04-18T04:25:39.278Z,840.67
2019-04-18T04:26:39.281Z,840.58
2019-04-18T04:27:39.284Z,841.11
2019-04-18T04:28:39.279Z,840.23
2019-04-18T04:29:39.614Z,841.42
2019-04-18T04:30:39.287Z,842.01
2019-04-18T04:31:39.314Z,842.17
2019-04-18T04:32:39.324Z,841.87
2019-04-18T04:33:40.201Z,842.33
2019-04-18T04:34:39.983Z,841.45
2019-04-18T04:35:39.299Z,841.35
2019-04-18T04:36:39.347Z,841.09
2019-04-18T04:40:02.364Z,841.86
2019-04-18T04:41:03.217Z,842.51
2019-04-18T04:42:02.268Z,843.22
2019-04-18T04:43:02.321Z,844.08
2019-04-18T04:44:02.325Z,845.48
2019-04-18T04:45:04.508Z,846.55
2019-04-18T04:46:05.756Z,847.51
2019-04-18T04:47:02.283Z,848.45
2019-04-18T04:48:02.345Z,850.05
2019-04-18T04:49:02.328Z,850.57
2019-04-18T04:50:04.093Z,851.51
2019-04-18T04:51:02.286Z,852.11
2019-04-18T04:52:02.293Z,853.26
2019-04-18T04:53:02.361Z,854.32
2019-04-18T04:54:05.532Z,854.72
2019-04-18T04:55:02.435Z,854.98
2019-04-18T04:56:02.319Z,855.71
2019-04-18T04:57:02.368Z,856.57
2019-04-18T04:58:02.912Z,857.69
2019-04-18T04:59:05.308Z,857.91
2019-04-18T05:00:02.531Z,859.21
2019-04-18T05:01:02.333Z,859.45
2019-04-18T05:02:05.937Z,860.11
2019-04-18T05:03:02.367Z,860.44
2019-04-18T05:04:02.347Z,860.82
2019-04-18T05:05:02.396Z,861.77
2019-04-18T05:06:02.607Z,861.92
2019-04-18T05:07:02.333Z,862.89
2019-04-18T05:08:02.437Z,863.09
2019-04-18T05:09:03.397Z,864.62
2019-04-18T05:10:02.669Z,865.99
2019-04-18T05:11:02.318Z,867.35
2019-04-18T05:12:02.325Z,868.26
2019-04-18T05:13:02.986Z,869.05
2019-04-18T05:14:02.336Z,869.91
2019-04-18T05:15:02.323Z,871.22
2019-04-18T05:16:03.045Z,872.83
2019-04-18T05:17:02.476Z,874.19
2019-04-18T05:18:02.341Z,875.36
2019-04-18T05:19:02.389Z,876.07
2019-04-18T05:20:02.413Z,876.78
2019-04-18T05:21:02.341Z,877.75
2019-04-18T05:22:02.352Z,878.66
2019-04-18T05:23:02.411Z,880.02
2019-04-18T05:24:02.439Z,881.07
2019-04-18T05:25:02.349Z,882.59
2019-04-18T05:26:02.383Z,884.65
2019-04-18T05:27:02.342Z,886.51
2019-04-18T05:28:02.493Z,888.17
2019-04-18T05:29:02.335Z,889.54
2019-04-18T05:30:02.359Z,891.12
2019-04-18T05:31:02.401Z,892.76
2019-04-18T05:32:02.433Z,894.29
2019-04-18T05:33:06.892Z,894.63
2019-04-18T05:34:02.361Z,896.96
2019-04-18T05:35:02.379Z,898.06
2019-04-18T05:36:02.502Z,899.42
2019-04-18T05:37:02.369Z,901.72
2019-04-18T05:38:02.346Z,902.82
2019-04-18T05:39:02.426Z,904.84
2019-04-18T05:40:03.416Z,906.41
2019-04-18T05:41:02.378Z,907.78
2019-04-18T05:42:02.388Z,909.42
2019-04-18T05:43:03.126Z,911.2
2019-04-18T05:44:02.376Z,913.8
2019-04-18T05:45:04.368Z,920.25
2019-04-18T05:46:02.366Z,932.47
2019-04-18T05:47:02.640Z,943.42
2019-04-18T05:48:02.425Z,948.04
2019-04-18T05:49:03.751Z,947.4
2019-04-18T05:50:05.545Z,945.33
2019-04-18T05:51:02.369Z,944.17
2019-04-18T05:52:02.388Z,944.5
2019-04-18T05:53:02.433Z,944.4
2019-04-18T05:54:02.773Z,944.37
2019-04-18T05:55:02.392Z,945.05
2019-04-18T05:56:02.504Z,946.17
2019-04-18T05:57:02.439Z,946.78
2019-04-18T05:58:03.673Z,947.79
2019-04-18T05:59:02.498Z,949.52
2019-04-18T06:00:02.413Z,951.35
2019-04-18T06:01:06.243Z,953.79
2019-04-18T06:02:02.422Z,957.3
2019-04-18T06:03:02.479Z,963.47
2019-04-18T06:04:02.408Z,970.19
2019-04-18T06:05:05.232Z,976.75
2019-04-18T06:06:03.821Z,982.62
2019-04-18T06:07:11.564Z,989.62
2019-04-18T06:08:02.409Z,996.04
2019-04-18T06:09:04.402Z,1003.28
2019-04-18T06:10:02.465Z,1011.81
2019-04-18T06:11:02.430Z,1020.87
2019-04-18T06:12:02.403Z,1030.93
2019-04-18T06:13:02.446Z,1040.16
2019-04-18T06:14:02.430Z,1048.37
2019-04-18T06:15:02.728Z,1056.42
2019-04-18T06:16:02.444Z,1064.2
2019-04-18T06:17:02.743Z,1071.14
2019-04-18T06:18:03.953Z,1077.34
2019-04-18T06:19:02.523Z,1082.97
2019-04-18T06:20:02.513Z,1086.91
2019-04-18T06:21:05.719Z,1089.64
2019-04-18T06:22:02.463Z,1091.89
2019-04-18T06:23:02.599Z,1093.29
2019-04-18T06:24:02.443Z,1094.45
2019-04-18T06:25:05.605Z,1094.91
2019-04-18T06:26:02.598Z,1095
2019-04-18T06:27:05.777Z,1095.23
2019-04-18T06:28:02.444Z,1095.75
2019-04-18T06:29:02.451Z,1096.76
2019-04-18T06:30:02.451Z,1097.33
2019-04-18T06:36:40.999Z,1115.73
2019-04-18T06:37:43.737Z,1118.67
2019-04-18T06:38:40.809Z,1121.12
2019-04-18T06:39:40.811Z,1123.8
2019-04-18T06:40:40.821Z,1126.66
2019-04-18T06:41:40.800Z,1129.29
2019-04-18T06:42:40.820Z,1131.38
2019-04-18T06:43:40.799Z,1133.29
2019-04-18T06:44:40.878Z,1134.64
2019-04-18T06:45:41.349Z,1135.85
2019-04-18T06:46:40.819Z,1136.77
2019-04-18T06:47:40.799Z,1137.73
2019-04-18T06:48:40.843Z,1138.54
2019-04-18T06:49:46.721Z,1139.2
2019-04-18T06:50:40.835Z,1139.67
2019-04-18T06:51:40.812Z,1139.99
2019-04-18T06:52:41.438Z,1140.36
2019-04-18T06:53:40.859Z,1140.7
2019-04-18T06:54:40.848Z,1140.9
2019-04-18T06:55:40.834Z,1141.05
2019-04-18T06:56:40.837Z,1141.19
2019-04-18T06:57:40.832Z,1141.26
2019-04-18T06:58:43.828Z,1141.31
2019-04-18T06:59:40.816Z,1141.21
2019-04-18T07:00:40.850Z,1141.05
2019-04-18T07:01:40.861Z,1140.84
2019-04-18T07:02:41.899Z,1140.68
2019-04-18T07:03:40.869Z,1140.41
2019-04-18T07:04:40.850Z,1140.2
2019-04-18T07:05:40.885Z,1139.93
2019-04-18T07:06:43.875Z,1139.51
2019-04-18T07:07:40.849Z,1139.22
2019-04-18T07:08:44.841Z,1138.84
2019-04-18T07:09:53.848Z,1138.4
2019-04-18T07:10:55.139Z,1137.98
2019-04-18T07:11:40.869Z,1137.47
2019-04-18T07:12:44.239Z,1136.89
2019-04-18T07:13:40.865Z,1136.38
2019-04-18T07:14:40.868Z,1136.29
2019-04-18T07:15:40.874Z,1136.39
2019-04-18T07:16:44.275Z,1136.6
2019-04-18T07:17:40.865Z,1136.33
2019-04-18T07:18:40.901Z,1136.15
2019-04-18T07:19:40.901Z,1135.95
2019-04-18T07:20:44.235Z,1135.59
2019-04-18T07:21:40.897Z,1135.16
2019-04-18T07:22:40.905Z,1134.65
2019-04-18T07:23:40.889Z,1133.86
2019-04-18T07:24:40.894Z,1133.05
2019-04-18T07:25:40.907Z,1132.23
2019-04-18T07:26:40.903Z,1131.41
2019-04-18T07:27:40.890Z,1130.91
2019-04-18T07:28:48.873Z,1130.59
2019-04-18T07:29:40.884Z,1130.2
2019-04-18T07:30:44.392Z,1129.62
2019-04-18T07:31:40.987Z,1128.83
2019-04-18T07:32:40.904Z,1128.13
2019-04-18T07:33:40.893Z,1127.71
2019-04-18T07:34:40.898Z,1127.48
2019-04-18T07:35:40.903Z,1127.22
2019-04-18T07:36:40.910Z,1126.5
2019-04-18T07:37:40.941Z,1125.97
2019-04-18T07:40:09.614Z,1125.27
2019-04-18T07:41:07.121Z,1125.16
2019-04-18T07:42:06.842Z,1125.08
2019-04-18T07:43:07.202Z,1124.81
2019-04-18T07:44:07.642Z,1124.93
2019-04-18T07:45:07.630Z,1125.18
2019-04-18T07:46:06.803Z,1126.09
2019-04-18T07:47:07.890Z,1126.57
2019-04-18T07:48:06.824Z,1126.89
2019-04-18T07:49:06.806Z,1126.85
2019-04-18T07:50:06.835Z,1126.76
2019-04-18T07:51:06.802Z,1126.91
2019-04-18T07:52:06.884Z,1126.92
2019-04-18T07:53:06.851Z,1127.42
2019-04-18T07:54:06.836Z,1128.54
2019-04-18T07:55:06.835Z,1129.65
2019-04-18T07:56:07.881Z,1130.19
2019-04-18T07:57:06.826Z,1130.78
2019-04-18T07:58:06.930Z,1131.08
2019-04-18T07:59:10.486Z,1130.74
2019-04-18T08:00:06.823Z,1130.49
2019-04-18T08:01:06.849Z,1130.65
2019-04-18T08:02:06.829Z,1131.46
2019-04-18T08:03:10.296Z,1132.22
2019-04-18T08:04:12.664Z,1132.65
2019-04-18T08:05:07.571Z,1132.69
2019-04-18T08:06:09.892Z,1132.49
2019-04-18T08:07:06.839Z,1131.99
2019-04-18T08:08:06.832Z,1131.17
2019-04-18T08:09:06.837Z,1130.35
2019-04-18T08:10:19.079Z,1129.67
2019-04-18T08:11:06.846Z,1129.36
2019-04-18T08:12:06.877Z,1129.2
2019-04-18T08:13:06.888Z,1128.76
2019-04-18T08:14:06.844Z,1128.39
2019-04-18T08:15:06.858Z,1128.23
2019-04-18T08:16:06.856Z,1128.11
2019-04-18T08:17:06.847Z,1127.89
2019-04-18T08:18:06.869Z,1127.22
2019-04-18T08:19:06.863Z,1126.32
2019-04-18T08:20:06.868Z,1125.34
2019-04-18T08:21:07.206Z,1124.58
2019-04-18T08:22:07.801Z,1123.99
2019-04-18T08:23:18.702Z,1122.42
2019-04-18T08:24:07.880Z,1120.89
2019-04-18T08:25:06.861Z,1119.79
2019-04-18T08:26:06.880Z,1119.08
2019-04-18T08:27:06.876Z,1118.77
2019-04-18T08:28:07.690Z,1118.68
2019-04-18T08:29:21.570Z,1118.95
2019-04-18T08:30:06.890Z,1119.14
2019-04-18T08:31:06.880Z,1118.9
2019-04-18T08:32:07.824Z,1118.11
2019-04-18T08:33:06.911Z,1117.44
2019-04-18T08:34:06.879Z,1116.62
2019-04-18T08:35:06.908Z,1115.7
2019-04-18T08:36:07.606Z,1114.65
2019-04-18T08:37:07.524Z,1113.79
2019-04-18T08:38:06.881Z,1112.62
2019-04-18T08:39:08.184Z,1111.22
2019-04-18T08:40:07.329Z,1109.79
2019-04-18T08:41:06.916Z,1109.01
2019-04-18T08:42:06.903Z,1108.14
2019-04-18T08:43:07.581Z,1107.22
2019-04-18T08:44:06.894Z,1105.52
2019-04-18T08:45:06.926Z,1104.3
2019-04-18T08:46:06.924Z,1103.34
2019-04-18T08:47:08.449Z,1102.81
2019-04-18T08:48:07.286Z,1102.37
2019-04-18T08:50:28.188Z,1099.69
2019-04-18T08:51:28.159Z,1098.72
2019-04-18T08:52:28.164Z,1097.41
2019-04-18T08:53:28.177Z,1096.24
2019-04-18T08:54:28.181Z,1094.73
2019-04-18T08:55:28.184Z,1092.96
2019-04-18T08:56:31.406Z,1091.31
2019-04-18T08:57:28.199Z,1090.69
2019-04-18T08:58:29.991Z,1090.12
2019-04-18T08:59:37.764Z,1089.37
2019-04-18T09:00:28.205Z,1088.49
2019-04-18T09:01:28.178Z,1087.85
2019-04-18T09:02:28.190Z,1086.47
2019-04-18T09:03:30.234Z,1084.95
2019-04-18T09:04:28.203Z,1083.48
2019-04-18T09:05:31.043Z,1082.89
2019-04-18T09:06:33.753Z,1083.46
2019-04-18T09:07:33.083Z,1083.94
2019-04-18T09:08:28.399Z,1083.33
2019-04-18T09:09:29.750Z,1082.51
2019-04-18T09:10:28.362Z,1081.96
2019-04-18T09:11:29.171Z,1082.07
2019-04-18T09:12:28.670Z,1082.87
2019-04-18T09:13:35.055Z,1083.14
2019-04-18T09:14:28.577Z,1082.78
2019-04-18T09:15:28.993Z,1081.99
2019-04-18T09:16:28.460Z,1080.94
2019-04-18T09:17:34.207Z,1079.9
2019-04-18T09:18:28.607Z,1077.98
2019-04-18T09:19:28.194Z,1075.76
2019-04-18T09:20:31.800Z,1072.87
2019-04-18T09:21:29.078Z,1070.62
2019-04-18T09:22:31.746Z,1068.43
2019-04-18T09:23:28.971Z,1066.9
2019-04-18T09:24:28.292Z,1066.95
2019-04-18T09:25:29.086Z,1067.08
2019-04-18T09:26:28.848Z,1066.19
2019-04-18T09:27:28.248Z,1064.4
2019-04-18T09:28:28.722Z,1062.56
2019-04-18T09:29:28.289Z,1062.56
2019-04-18T09:30:28.295Z,1064.12
2019-04-18T09:31:28.250Z,1065.68
2019-04-18T09:32:28.237Z,1066.98
2019-04-18T09:33:28.350Z,1068.61
2019-04-18T09:34:29.319Z,1071.04
2019-04-18T09:35:44.337Z,1072.83
2019-04-18T09:36:30.799Z,1075.01
2019-04-18T09:37:28.273Z,1077.15
2019-04-18T09:38:28.277Z,1079.66
2019-04-18T09:39:28.636Z,1082.3
2019-04-18T09:40:29.572Z,1084.29
2019-04-18T09:41:31.896Z,1086.09
2019-04-18T09:42:28.242Z,1086.96
2019-04-18T09:43:28.246Z,1087.26
2019-04-18T09:44:28.273Z,1086.8
2019-04-18T09:45:31.103Z,1085.95
2019-04-18T09:46:28.290Z,1085.13
2019-04-18T09:47:28.258Z,1083.78
2019-04-18T09:48:30.502Z,1083.07
2019-04-18T09:49:28.267Z,1081.32
2019-04-18T09:50:28.290Z,1079.97
2019-04-18T09:51:28.297Z,1078.73
2019-04-18T09:52:29.110Z,1077.62
2019-04-18T09:53:30.887Z,1076.49
2019-04-18T09:54:28.289Z,1075.18
2019-04-18T09:55:28.426Z,1074.71
2019-04-18T09:56:28.760Z,1074.25
2019-04-18T09:57:28.298Z,1073.27
2019-04-18T09:58:28.408Z,1072.19
2019-04-18T09:59:28.302Z,1070.72
2019-04-18T10:00:28.316Z,1069.36
2019-04-18T10:01:28.317Z,1069.6
2019-04-18T10:02:29.167Z,1069.67
2019-04-18T10:03:30.950Z,1068.98
2019-04-18T10:04:28.297Z,1067.17
2019-04-18T10:05:28.316Z,1064.99
2019-04-18T10:06:28.326Z,1062.4
2019-04-18T10:07:28.329Z,1060.64
2019-04-18T10:08:28.676Z,1057.29
2019-04-18T10:09:28.320Z,1053.66
2019-04-18T10:10:28.320Z,1050.02
2019-04-18T10:11:28.327Z,1047.43
2019-04-18T10:12:31.590Z,1045.16
2019-04-18T10:13:28.300Z,1044.53
2019-04-18T10:14:28.369Z,1046.4
2019-04-18T10:15:28.537Z,1047.65
2019-04-18T10:16:28.320Z,1048.65
2019-04-18T10:17:30.203Z,1047.65
2019-04-18T10:18:30.837Z,1045.98
2019-04-18T10:19:28.314Z,1043.64
2019-04-18T10:20:29.189Z,1040.53
2019-04-18T10:21:28.565Z,1040.21
2019-04-18T10:22:28.378Z,1042.11
2019-04-18T10:23:28.564Z,1042.68
2019-04-18T10:24:44.408Z,1042.43
2019-04-18T10:25:44.390Z,1041.96
2019-04-18T10:26:44.362Z,1041.36
2019-04-18T10:27:44.384Z,1040.75
2019-04-18T10:28:44.393Z,1040.2
2019-04-18T10:29:44.398Z,1041.45
2019-04-18T10:30:44.398Z,1041.4
2019-04-18T10:31:44.430Z,1041.22
2019-04-18T10:32:44.376Z,1042.12
2019-04-18T10:33:44.403Z,1045.83
2019-04-18T10:34:44.384Z,1045.8
2019-04-18T10:35:44.400Z,1045.41
2019-04-18T10:36:44.401Z,1045.45
2019-04-18T10:37:44.413Z,1045.08
2019-04-18T10:38:47.314Z,1045.33
2019-04-18T10:39:44.406Z,1045.66
2019-04-18T10:40:44.421Z,1044.81
2019-04-18T10:41:44.400Z,1042.66
2019-04-18T10:42:44.423Z,1040.38
2019-04-18T10:43:44.422Z,1037.94
2019-04-18T10:44:44.697Z,1034.37
2019-04-18T10:45:44.400Z,1030.7
2019-04-18T10:46:44.924Z,1027.51
2019-04-18T10:47:44.407Z,1024.36
2019-04-18T10:48:44.416Z,1021.05
2019-04-18T10:49:44.420Z,1018.1
2019-04-18T10:50:44.428Z,1015.21
2019-04-18T10:51:44.417Z,1012.55
2019-04-18T10:52:44.426Z,1009.49
2019-04-18T10:53:44.430Z,1006.69
2019-04-18T10:54:45.769Z,1002.52
2019-04-18T10:55:44.440Z,999.14
2019-04-18T10:56:44.448Z,996.46
2019-04-18T10:57:44.435Z,993.5
2019-04-18T10:58:44.436Z,992.16
2019-04-18T10:59:44.448Z,990.84
2019-04-18T11:00:44.623Z,989.84
2019-04-18T11:01:44.421Z,988.35
2019-04-18T11:02:44.445Z,987.36
2019-04-18T11:03:44.452Z,988.87
2019-04-18T11:04:44.461Z,992.34
2019-04-18T11:05:44.481Z,995.05
2019-04-18T11:06:44.430Z,997.74
2019-04-18T11:07:44.462Z,999.85
2019-04-18T11:08:44.470Z,1001.93
2019-04-18T11:09:44.453Z,1004.86
2019-04-18T11:10:44.482Z,1006.05
2019-04-18T11:11:44.460Z,1007.76
2019-04-18T11:12:44.490Z,1008.39
2019-04-18T11:13:44.477Z,1009.48
2019-04-18T11:14:44.443Z,1012.52
2019-04-18T11:15:44.471Z,1015.59
2019-04-18T11:16:44.497Z,1018.48
2019-04-18T11:17:44.488Z,1021.45
2019-04-18T11:18:44.515Z,1025.09
2019-04-18T11:19:44.474Z,1027.54
2019-04-18T11:20:44.835Z,1029.12
2019-04-18T11:21:45.767Z,1030.47
2019-04-18T11:22:44.774Z,1032.41
2019-04-18T11:23:44.500Z,1033.12
2019-04-18T11:24:44.529Z,1032.79
2019-04-18T11:25:44.537Z,1033.21
2019-04-18T11:26:44.505Z,1033.65
2019-04-18T11:27:44.511Z,1032.67
2019-04-18T11:28:44.478Z,1030.64
2019-04-18T11:29:44.507Z,1027.96
2019-04-18T11:30:58.046Z,1025.59
2019-04-18T11:31:44.517Z,1023.15
2019-04-18T11:32:44.566Z,1019.27
2019-04-18T11:33:44.572Z,1015.48
2019-04-18T11:34:44.538Z,1011.34
2019-04-18T11:35:44.498Z,1006.54
2019-04-18T11:36:44.507Z,1000.76
2019-04-18T11:37:48.069Z,995.37
2019-04-18T11:38:47.495Z,991.93
2019-04-18T11:39:44.548Z,988.83
2019-04-18T11:40:44.522Z,987.05
2019-04-18T11:41:44.528Z,985.33
2019-04-18T11:42:44.519Z,984.26
2019-04-18T11:43:47.715Z,982.57
2019-04-18T11:44:44.533Z,980.73
2019-04-18T11:45:44.540Z,978.89
2019-04-18T11:46:44.548Z,977.22
2019-04-18T11:47:44.523Z,976.37
2019-04-18T11:48:44.530Z,974.35
2019-04-18T11:49:44.545Z,970.82
2019-04-18T11:50:44.568Z,968.42
2019-04-18T11:51:44.534Z,966.16
2019-04-18T11:52:44.535Z,963.67
2019-04-18T11:53:44.573Z,960.26
2019-04-18T11:54:44.534Z,957.9
2019-04-18T11:55:44.522Z,955.61
2019-04-18T11:56:44.530Z,953.4
2019-04-18T11:57:44.765Z,951.73
2019-04-18T11:58:44.540Z,949.17
2019-04-18T11:59:44.563Z,946.91
2019-04-18T12:00:44.563Z,945.2
2019-04-18T12:01:44.557Z,943.73
2019-04-18T12:02:44.546Z,941.47
2019-04-18T12:03:44.555Z,938.47
2019-04-18T12:04:44.554Z,936.83
2019-04-18T12:05:44.573Z,935.09
2019-04-18T12:06:44.567Z,933.22
2019-04-18T12:07:44.574Z,932.05
2019-04-18T12:08:44.569Z,931.13
2019-04-18T12:09:44.575Z,931.29
2019-04-18T12:10:44.581Z,931.95
2019-04-18T12:11:44.662Z,933.59
2019-04-18T12:12:47.684Z,935.37
2019-04-18T12:13:44.571Z,937.81
2019-04-18T12:14:44.569Z,939.99
2019-04-18T12:15:44.587Z,942.15
2019-04-18T12:16:44.564Z,943.6
2019-04-18T12:17:44.680Z,945.56
2019-04-18T12:18:44.574Z,947.82
2019-04-18T12:19:44.598Z,951.25
2019-04-18T12:20:44.592Z,954.72
2019-04-18T12:21:44.593Z,957.97
2019-04-18T12:22:44.576Z,961.22
2019-04-18T12:23:44.605Z,963.5
2019-04-18T12:24:44.614Z,964.82
2019-04-18T12:25:44.576Z,967.21
2019-04-18T12:26:44.617Z,969
2019-04-18T12:27:44.604Z,970.14
2019-04-18T12:28:44.610Z,971.56
2019-04-18T12:29:44.598Z,973.24
2019-04-18T12:30:44.628Z,974.42
2019-04-18T12:31:44.612Z,975
2019-04-18T12:32:44.605Z,974.77
2019-04-18T12:33:44.625Z,974.23
2019-04-18T12:34:44.596Z,974.04
2019-04-18T12:35:44.605Z,973.91